EGGH weather

CLOSED Heston Aerodrome
London, England, United Kingdom

Public forecast

Using degrees Celsius for public forecast. Weather courtesy of forecast.io.

METAR (pilot weather report)

Closest report is London Heathrow Airport, 2.8 nm (5.3 km) WSW. Retrieved 2019/03/26 04:20 UTC (8 minutes ago):

EGLL 260420Z AUTO 27004KT 9999 NCD 02/00 Q1034 NOSIG

TAF (pilot weather forecast)

Forecast is more than 12 hours old.

Closest forecast is London Heathrow Airport, 2.8 nm (5.3 km) WSW. Retrieved 2019/03/25 00:00 UTC (1 day ago):

TAF EGLL 252252Z 2600/2706 VRB03KT 9999 FEW040 PROB40 2602/2609 8000 BECMG 2608/2611 33010KT BECMG 2620/2623 VRB03KT